Time;durP1;ratioP1;P1;durP2;ratioP2;P2;SDS_P1;SDS_P2;PMS_P1;PMS_P2;Temp;Humidity;BMP_temperature;BMP_pressure;BME280_temperature;BME280_humidity;BME280_pressure;Samples;Min_cycle;Max_cycle;Signal;HPM_P1;HPM_P2
2021/12/07 00:00:12;;;;;;;;;;;;;;;;;;1013375;29;1065;-17
2021/12/07 00:00:43;;;;;;;;;;;;;;;;;;1013187;29;958;-17
2021/12/07 00:01:14;;;;;;;;;;;;;;;;;;1013468;29;807;-18
2021/12/07 00:01:45;;;;;;;;;;;;;;;;;;1013382;29;946;-17
2021/12/07 00:02:15;;;;;;;;;;;;;;;;;;1013309;29;1008;-17
2021/12/07 00:02:46;;;;;;;;;;;;;;;;;;1013433;29;807;-17
2021/12/07 00:03:17;;;;;;;;;;;;;;;;;;1013519;29;1080;-17
2021/12/07 00:03:47;;;;;;;;;;;;;;;;;;1013438;29;809;-17
2021/12/07 00:04:18;;;;;;;;;;;;;;;;;;1013175;29;1988;-17
2021/12/07 00:04:48;;;;;;;;;;;;;;;;;;1013458;29;909;-17
2021/12/07 00:05:19;;;;;;;;;;;;;;;;;;1013029;29;1163;-17
2021/12/07 00:05:50;;;;;;;;;;;;;;;;;;1010569;29;1108;-17
2021/12/07 00:06:21;;;;;;;;;;;;;;;;;;1009380;29;933;-17
2021/12/07 00:06:52;;;;;;;;;;;;;;;;;;1009317;29;801;-17
2021/12/07 00:07:22;;;;;;;;;;;;;;;;;;1009690;29;1058;-17
2021/12/07 00:07:53;;;;;;;;;;;;;;;;;;1009576;29;851;-17
2021/12/07 00:08:25;;;;;;;;;;;;;;;;;;1009257;29;1093;-17
2021/12/07 00:08:56;;;;;;;;;;;;;;;;;;1009488;29;1012;-17
2021/12/07 00:09:27;;;;;;;;;;;;;;;;;;1009475;29;989;-17
2021/12/07 00:09:57;;;;;;;;;;;;;;;;;;1009450;29;1019;-17
2021/12/07 00:10:28;;;;;;;;;;;;;;;;;;1009423;29;961;-17
2021/12/07 00:10:58;;;;;;;;;;;;;;;;;;1009203;29;808;-17
2021/12/07 00:11:29;;;;;;;;;;;;;;;;;;1009521;29;887;-17
2021/12/07 00:12:04;;;;;;;;;;;;;;;;;;1009463;29;1068;-17
2021/12/07 00:12:38;;;;;;;;;;;;;;;;;;1009399;29;886;-17
2021/12/07 00:13:10;;;;;;;;;;;;;;;;;;1009681;29;1093;-17
2021/12/07 00:13:42;;;;;;;;;;;;;;;;;;1009562;29;929;-17
2021/12/07 00:14:14;;;;;;;;;;;;;;;;;;1009458;29;891;-17
2021/12/07 00:14:45;;;;;;;;;;;;;;;;;;1009497;29;902;-17
2021/12/07 00:15:20;;;;;;;;;;;;;;;;;;1009433;29;934;-17
2021/12/07 00:15:51;;;;;;;;;;;;;;;;;;1009337;29;808;-17
2021/12/07 00:16:21;;;;;;;;;;;;;;;;;;1009617;29;939;-17
2021/12/07 00:16:53;;;;;;;;;;;;;;;;;;1009427;29;864;-17
2021/12/07 00:17:24;;;;;;;;;;;;;;;;;;1012094;29;1475;-17
2021/12/07 00:17:54;;;;;;;;;;;;;;;;;;1013379;29;1055;-17
2021/12/07 00:18:25;;;;;;;;;;;;;;;;;;1010619;29;915;-17
2021/12/07 00:18:57;;;;;;;;;;;;;;;;;;1009052;29;1472;-17
2021/12/07 00:19:28;;;;;;;;;;;;;;;;;;1011972;29;1260;-17
2021/12/07 00:19:59;;;;;;;;;;;;;;;;;;1012770;29;1646;-17
2021/12/07 00:20:30;;;;;;;;;;;;;;;;;;1010643;29;934;-17
2021/12/07 00:21:01;;;;;;;;;;;;;;;;;;1012982;29;988;-17
2021/12/07 00:21:32;;;;;;;;;;;;;;;;;;1009278;29;879;-17
2021/12/07 00:22:04;;;;;;;;;;;;;;;;;;1009575;29;1021;-17
2021/12/07 00:22:34;;;;;;;;;;;;;;;;;;1009322;29;828;-17
2021/12/07 00:23:07;;;;;;;;;;;;;;;;;;1009415;29;1012;-17
2021/12/07 00:23:37;;;;;;;;;;;;;;;;;;1009625;29;883;-17
2021/12/07 00:24:08;;;;;;;;;;;;;;;;;;1009319;29;862;-21
2021/12/07 00:24:39;;;;;;;;;;;;;;;;;;1009461;29;1968;-17
2021/12/07 00:25:10;;;;;;;;;;;;;;;;;;1009453;29;976;-17
2021/12/07 00:25:41;;;;;;;;;;;;;;;;;;1009283;29;922;-17
2021/12/07 00:26:12;;;;;;;;;;;;;;;;;;1009290;29;1081;-17
2021/12/07 00:26:43;;;;;;;;;;;;;;;;;;1009389;29;895;-17
2021/12/07 00:27:14;;;;;;;;;;;;;;;;;;1004998;29;1713;-17
2021/12/07 00:27:44;;;;;;;;;;;;;;;;;;1005584;29;938;-17
2021/12/07 00:28:15;;;;;;;;;;;;;;;;;;1004967;29;883;-17
2021/12/07 00:28:46;;;;;;;;;;;;;;;;;;1008141;29;1246;-17
2021/12/07 00:29:17;;;;;;;;;;;;;;;;;;1013612;29;1405;-17
2021/12/07 00:29:47;;;;;;;;;;;;;;;;;;1015204;29;962;-17
2021/12/07 00:30:18;;;;;;;;;;;;;;;;;;1015144;29;1253;-17
2021/12/07 00:30:49;;;;;;;;;;;;;;;;;;1013057;29;974;-17
2021/12/07 00:31:30;;;;;;;;;;;;;;;;;;1011671;29;1594;-17
2021/12/07 00:32:38;;;;;;;;;;;;;;;;;;1009617;29;953;-17
2021/12/07 00:34:45;;;;;;;;;;;;;;;;;;1004847;29;801;-16
2021/12/07 00:35:46;;;;;;;;;;;;;;;;;;1006356;29;1017;-16
2021/12/07 00:36:17;;;;;;;;;;;;;;;;;;1008646;29;1178;-16
2021/12/07 00:36:48;;;;;;;;;;;;;;;;;;1009244;29;887;-16
2021/12/07 00:37:18;;;;;;;;;;;;;;;;;;1008881;29;886;-17
2021/12/07 00:37:51;;;;;;;;;;;;;;;;;;1009090;29;772;-17
2021/12/07 00:38:23;;;;;;;;;;;;;;;;;;1009610;29;906;-16
2021/12/07 00:38:54;;;;;;;;;;;;;;;;;;1009014;29;1195;-16
2021/12/07 00:39:25;;;;;;;;;;;;;;;;;;1009206;29;911;-17
2021/12/07 00:39:56;;;;;;;;;;;;;;;;;;1009064;29;1331;-17
2021/12/07 00:40:26;;;;;;;;;;;;;;;;;;1009032;29;830;-16
2021/12/07 00:40:58;;;;;;;;;;;;;;;;;;1008951;29;1027;-16
2021/12/07 00:41:29;;;;;;;;;;;;;;;;;;1008888;29;1166;-16
2021/12/07 00:42:00;;;;;;;;;;;;;;;;;;1009418;29;793;-17
2021/12/07 00:42:30;;;;;;;;;;;;;;;;;;1009352;29;933;-17
2021/12/07 00:43:01;;;;;;;;;;;;;;;;;;1009456;29;907;-16
2021/12/07 00:43:33;;;;;;;;;;;;;;;;;;1009311;29;808;-17
2021/12/07 00:44:04;;;;;;;;;;;;;;;;;;1009603;29;921;-16
2021/12/07 00:44:34;;;;;;;;;;;;;;;;;;1008765;29;1911;-16
2021/12/07 00:45:05;;;;;;;;;;;;;;;;;;1009083;29;1009;-17
2021/12/07 00:45:36;;;;;;;;;;;;;;;;;;1008926;29;1454;-17
2021/12/07 00:46:08;;;;;;;;;;;;;;;;;;1008977;29;840;-17
2021/12/07 00:46:39;;;;;;;;;;;;;;;;;;1005021;29;1333;-16
2021/12/07 00:47:09;;;;;;;;;;;;;;;;;;1005220;29;1044;-17
2021/12/07 00:47:39;;;;;;;;;;;;;;;;;;1005224;29;903;-17
2021/12/07 00:48:10;;;;;;;;;;;;;;;;;;1001275;29;2316;-16
2021/12/07 00:48:40;;;;;;;;;;;;;;;;;;1005123;29;1050;-16
2021/12/07 00:49:11;;;;;;;;;;;;;;;;;;1005235;29;910;-17
2021/12/07 00:49:42;;;;;;;;;;;;;;;;;;1005467;29;1124;-17
2021/12/07 00:50:12;;;;;;;;;;;;;;;;;;1009282;29;902;-17
2021/12/07 00:50:45;;;;;;;;;;;;;;;;;;1009381;29;913;-17
2021/12/07 00:51:16;;;;;;;;;;;;;;;;;;1009287;29;934;-17
2021/12/07 00:51:46;;;;;;;;;;;;;;;;;;1008799;29;1373;-16
2021/12/07 00:52:17;;;;;;;;;;;;;;;;;;1008543;29;1051;-17
2021/12/07 00:52:48;;;;;;;;;;;;;;;;;;1009118;29;933;-16
2021/12/07 00:53:18;;;;;;;;;;;;;;;;;;1009052;29;798;-16
2021/12/07 00:53:49;;;;;;;;;;;;;;;;;;1009375;29;886;-16
2021/12/07 00:54:20;;;;;;;;;;;;;;;;;;1008945;29;1172;-17
2021/12/07 00:54:51;;;;;;;;;;;;;;;;;;1008789;29;1063;-17
2021/12/07 00:55:27;;;;;;;;;;;;;;;;;;1005219;29;1137;-17
2021/12/07 00:55:59;;;;;;;;;;;;;;;;;;1000738;29;1428;-16
2021/12/07 00:56:30;;;;;;;;;;;;;;;;;;1000972;29;1192;-17
2021/12/07 00:57:02;;;;;;;;;;;;;;;;;;1002494;29;1159;-17
2021/12/07 00:57:32;;;;;;;;;;;;;;;;;;1005542;29;808;-17
2021/12/07 00:58:12;;;;;;;;;;;;;;;;;;1009285;29;913;-17
2021/12/07 00:58:44;;;;;;;;;;;;;;;;;;1009000;29;1351;-17
2021/12/07 00:59:15;;;;;;;;;;;;;;;;;;1008932;29;867;-17
2021/12/07 00:59:45;;;;;;;;;;;;;;;;;;1008896;29;1192;-16
2021/12/07 01:00:16;;;;;;;;;;;;;;;;;;1004899;29;1171;-17
2021/12/07 01:00:48;;;;;;;;;;;;;;;;;;1000643;29;1171;-17
2021/12/07 01:01:19;;;;;;;;;;;;;;;;;;1001210;29;1160;-17
2021/12/07 01:01:49;;;;;;;;;;;;;;;;;;1001200;29;1008;-17
2021/12/07 01:02:19;;;;;;;;;;;;;;;;;;1001627;29;1368;-17
2021/12/07 01:02:53;;;;;;;;;;;;;;;;;;1005352;29;913;-17
2021/12/07 01:03:24;;;;;;;;;;;;;;;;;;1009481;29;1052;-17
2021/12/07 01:03:55;;;;;;;;;;;;;;;;;;1009287;29;835;-17
2021/12/07 01:04:27;;;;;;;;;;;;;;;;;;1009341;29;1918;-17
2021/12/07 01:05:08;;;;;;;;;;;;;;;;;;1008766;29;1156;-17
2021/12/07 01:05:40;;;;;;;;;;;;;;;;;;1008862;29;847;-17
2021/12/07 01:06:27;;;;;;;;;;;;;;;;;;1008918;29;920;-17
2021/12/07 01:07:05;;;;;;;;;;;;;;;;;;1009381;29;923;-17
2021/12/07 01:08:22;;;;;;;;;;;;;;;;;;1008805;29;1457;-17
2021/12/07 01:24:52;;;;;;;;;;;;;;;;;;1005046;29;858;-17
2021/12/07 01:25:26;;;;;;;;;;;;;;;;;;1005100;29;1337;-17
2021/12/07 01:25:57;;;;;;;;;;;;;;;;;;1007950;29;993;-17
2021/12/07 01:26:28;;;;;;;;;;;;;;;;;;1008846;29;1326;-17
2021/12/07 01:26:59;;;;;;;;;;;;;;;;;;1008923;29;821;-17
2021/12/07 01:27:30;;;;;;;;;;;;;;;;;;1008995;29;913;-17
2021/12/07 01:28:03;;;;;;;;;;;;;;;;;;1008793;29;1179;-17
2021/12/07 01:28:39;;;;;;;;;;;;;;;;;;996912;29;1495;-17
2021/12/07 01:29:10;;;;;;;;;;;;;;;;;;997062;29;939;-17
2021/12/07 01:29:44;;;;;;;;;;;;;;;;;;997301;29;1039;-17
2021/12/07 01:30:21;;;;;;;;;;;;;;;;;;998861;29;1191;-17
2021/12/07 01:31:01;;;;;;;;;;;;;;;;;;1004880;29;836;-17
2021/12/07 01:32:25;;;;;;;;;;;;;;;;;;1004735;29;1385;-17
2021/12/07 01:33:16;;;;;;;;;;;;;;;;;;1005342;29;974;-17
2021/12/07 01:35:30;;;;;;;;;;;;;;;;;;1008168;29;866;-17
2021/12/07 01:36:17;;;;;;;;;;;;;;;;;;1008734;29;1173;-17
2021/12/07 01:37:59;;;;;;;;;;;;;;;;;;1005001;29;1279;-17
2021/12/07 01:40:28;;;;;;;;;;;;;;;;;;1005070;29;983;-17
2021/12/07 01:41:18;;;;;;;;;;;;;;;;;;1008703;29;1183;-17
2021/12/07 01:44:19;;;;;;;;;;;;;;;;;;1008832;29;858;-17
2021/12/07 01:47:35;;;;;;;;;;;;;;;;;;1008694;29;1047;-17
2021/12/07 01:50:29;;;;;;;;;;;;;;;;;;1005355;29;983;-17
2021/12/07 01:57:49;;;;;;;;;;;;;;;;;;1009301;29;925;-17
2021/12/07 01:59:43;;;;;;;;;;;;;;;;;;1001049;29;1250;-16
2021/12/07 02:00:15;;;;;;;;;;;;;;;;;;1000432;29;852;-17
2021/12/07 02:00:46;;;;;;;;;;;;;;;;;;997547;29;1303;-17
2021/12/07 02:01:17;;;;;;;;;;;;;;;;;;1000942;29;1192;-17
2021/12/07 02:01:47;;;;;;;;;;;;;;;;;;1001675;29;876;-17
2021/12/07 02:02:19;;;;;;;;;;;;;;;;;;1005208;29;957;-17
2021/12/07 02:02:49;;;;;;;;;;;;;;;;;;1008848;29;922;-16
2021/12/07 02:03:20;;;;;;;;;;;;;;;;;;1004973;29;1141;-17
2021/12/07 02:03:50;;;;;;;;;;;;;;;;;;1005041;29;1012;-17
2021/12/07 02:04:21;;;;;;;;;;;;;;;;;;1005063;29;1120;-17
2021/12/07 02:04:52;;;;;;;;;;;;;;;;;;1005297;29;1993;-17
2021/12/07 02:05:27;;;;;;;;;;;;;;;;;;1005054;29;1415;-17
2021/12/07 02:05:58;;;;;;;;;;;;;;;;;;1004902;29;843;-17
2021/12/07 02:06:28;;;;;;;;;;;;;;;;;;1000935;29;1270;-17
2021/12/07 02:06:59;;;;;;;;;;;;;;;;;;997507;29;942;-17
2021/12/07 02:07:31;;;;;;;;;;;;;;;;;;997195;29;1221;-17
2021/12/07 02:08:02;;;;;;;;;;;;;;;;;;997676;29;1128;-17
2021/12/07 02:08:33;;;;;;;;;;;;;;;;;;999694;29;777;-17
2021/12/07 02:09:05;;;;;;;;;;;;;;;;;;1001381;29;1168;-17
2021/12/07 02:09:39;;;;;;;;;;;;;;;;;;1005346;29;1316;-17
2021/12/07 02:10:15;;;;;;;;;;;;;;;;;;1004841;29;1255;-17
2021/12/07 02:10:47;;;;;;;;;;;;;;;;;;1002607;29;1187;-17
2021/12/07 02:11:17;;;;;;;;;;;;;;;;;;1004968;29;1009;-17
2021/12/07 02:11:50;;;;;;;;;;;;;;;;;;1001003;29;1151;-17
2021/12/07 02:12:22;;;;;;;;;;;;;;;;;;1001662;29;1180;-17
2021/12/07 02:13:01;;;;;;;;;;;;;;;;;;1005791;29;1335;-17
2021/12/07 02:14:15;;;;;;;;;;;;;;;;;;1005632;29;1184;-17
2021/12/07 02:14:46;;;;;;;;;;;;;;;;;;1001793;29;1412;-17
2021/12/07 02:15:21;;;;;;;;;;;;;;;;;;1001774;29;1052;-17
2021/12/07 02:15:51;;;;;;;;;;;;;;;;;;1003597;29;1492;-17
2021/12/07 02:16:29;;;;;;;;;;;;;;;;;;1001140;29;1381;-17
2021/12/07 02:17:11;;;;;;;;;;;;;;;;;;1001958;29;1557;-17
2021/12/07 02:17:42;;;;;;;;;;;;;;;;;;1004285;29;1200;-17
2021/12/07 02:18:13;;;;;;;;;;;;;;;;;;1003783;29;852;-17
2021/12/07 02:18:43;;;;;;;;;;;;;;;;;;1005803;29;1076;-17
2021/12/07 02:19:14;;;;;;;;;;;;;;;;;;1001756;29;1448;-17
2021/12/07 02:19:44;;;;;;;;;;;;;;;;;;1001846;29;855;-17
2021/12/07 02:20:16;;;;;;;;;;;;;;;;;;1005948;29;921;-24
2021/12/07 02:20:46;;;;;;;;;;;;;;;;;;1005648;29;1273;-17
2021/12/07 02:21:19;;;;;;;;;;;;;;;;;;1005187;29;1295;-17
2021/12/07 02:21:54;;;;;;;;;;;;;;;;;;1005619;29;950;-17
2021/12/07 02:22:30;;;;;;;;;;;;;;;;;;1001254;29;1536;-17
2021/12/07 02:23:01;;;;;;;;;;;;;;;;;;1003147;29;808;-17
2021/12/07 02:23:31;;;;;;;;;;;;;;;;;;1005925;29;1116;-17
2021/12/07 02:24:02;;;;;;;;;;;;;;;;;;1005387;29;1089;-17
2021/12/07 02:24:33;;;;;;;;;;;;;;;;;;1005671;29;1951;-17
2021/12/07 02:25:05;;;;;;;;;;;;;;;;;;1005585;29;963;-17
2021/12/07 02:25:35;;;;;;;;;;;;;;;;;;1001741;29;1280;-17
2021/12/07 02:26:05;;;;;;;;;;;;;;;;;;998205;29;1164;-17
2021/12/07 02:26:36;;;;;;;;;;;;;;;;;;1001535;29;1157;-17
2021/12/07 02:27:07;;;;;;;;;;;;;;;;;;1001696;29;1361;-17
2021/12/07 02:27:37;;;;;;;;;;;;;;;;;;1001909;29;1208;-17
2021/12/07 02:28:16;;;;;;;;;;;;;;;;;;1001883;29;1271;-17
2021/12/07 02:28:49;;;;;;;;;;;;;;;;;;1001631;29;1071;-17
2021/12/07 02:29:20;;;;;;;;;;;;;;;;;;1003304;29;1228;-17
2021/12/07 02:29:51;;;;;;;;;;;;;;;;;;1007115;29;1255;-17
2021/12/07 02:30:23;;;;;;;;;;;;;;;;;;1005456;29;1247;-17
2021/12/07 02:30:53;;;;;;;;;;;;;;;;;;1005893;29;847;-17
2021/12/07 02:31:24;;;;;;;;;;;;;;;;;;1005638;29;879;-17
2021/12/07 02:31:56;;;;;;;;;;;;;;;;;;1005467;29;1393;-17
2021/12/07 02:32:26;;;;;;;;;;;;;;;;;;1009560;29;1100;-17
2021/12/07 02:32:57;;;;;;;;;;;;;;;;;;1005548;29;1251;-17
2021/12/07 02:33:28;;;;;;;;;;;;;;;;;;1001770;29;1278;-17
2021/12/07 02:33:59;;;;;;;;;;;;;;;;;;1002112;29;1168;-17
2021/12/07 02:34:30;;;;;;;;;;;;;;;;;;1001756;29;1285;-17
2021/12/07 02:35:02;;;;;;;;;;;;;;;;;;1002259;29;1246;-17
2021/12/07 02:35:35;;;;;;;;;;;;;;;;;;1005782;29;858;-17
2021/12/07 02:36:07;;;;;;;;;;;;;;;;;;1001697;29;1258;-17
2021/12/07 02:36:38;;;;;;;;;;;;;;;;;;1002343;29;887;-17
2021/12/07 02:37:09;;;;;;;;;;;;;;;;;;1005447;29;950;-17
2021/12/07 02:37:40;;;;;;;;;;;;;;;;;;1006059;29;896;-17
2021/12/07 02:38:12;;;;;;;;;;;;;;;;;;1009468;29;1203;-17
2021/12/07 02:38:43;;;;;;;;;;;;;;;;;;1005358;29;1456;-17
2021/12/07 02:39:13;;;;;;;;;;;;;;;;;;1001857;29;1192;-17
2021/12/07 02:39:45;;;;;;;;;;;;;;;;;;1005660;29;1057;-17
2021/12/07 02:40:15;;;;;;;;;;;;;;;;;;1005694;29;965;-17
2021/12/07 02:40:48;;;;;;;;;;;;;;;;;;1009671;29;1388;-17
2021/12/07 02:41:19;;;;;;;;;;;;;;;;;;1009232;29;1357;-17
2021/12/07 02:41:50;;;;;;;;;;;;;;;;;;1005305;29;1182;-17
2021/12/07 02:42:21;;;;;;;;;;;;;;;;;;1005523;29;1210;-17
2021/12/07 02:42:52;;;;;;;;;;;;;;;;;;1005531;29;1002;-17
2021/12/07 02:43:22;;;;;;;;;;;;;;;;;;1001793;29;1342;-17
2021/12/07 02:43:54;;;;;;;;;;;;;;;;;;1005669;29;848;-17
2021/12/07 02:44:24;;;;;;;;;;;;;;;;;;1005448;29;1930;-17
2021/12/07 02:44:55;;;;;;;;;;;;;;;;;;1005829;29;1417;-17
2021/12/07 02:45:26;;;;;;;;;;;;;;;;;;1009232;29;1179;-17
2021/12/07 02:45:56;;;;;;;;;;;;;;;;;;1005521;29;1157;-17
2021/12/07 02:46:27;;;;;;;;;;;;;;;;;;1005547;29;1179;-17
2021/12/07 02:47:00;;;;;;;;;;;;;;;;;;1005438;29;1144;-17
2021/12/07 02:47:34;;;;;;;;;;;;;;;;;;1006094;29;862;-17
2021/12/07 02:48:05;;;;;;;;;;;;;;;;;;1005546;29;1344;-17
2021/12/07 02:48:36;;;;;;;;;;;;;;;;;;1005528;29;886;-17
2021/12/07 02:49:07;;;;;;;;;;;;;;;;;;1005143;29;1401;-17
2021/12/07 02:49:38;;;;;;;;;;;;;;;;;;1001931;29;1346;-17
2021/12/07 02:50:09;;;;;;;;;;;;;;;;;;1008499;29;1286;-17
2021/12/07 02:50:40;;;;;;;;;;;;;;;;;;1009236;29;1193;-17
2021/12/07 02:51:10;;;;;;;;;;;;;;;;;;1013432;29;1312;-17
2021/12/07 02:51:41;;;;;;;;;;;;;;;;;;1013138;29;1354;-17
2021/12/07 02:52:12;;;;;;;;;;;;;;;;;;1013098;29;1178;-17
2021/12/07 02:52:43;;;;;;;;;;;;;;;;;;1013129;29;1203;-17
2021/12/07 02:53:14;;;;;;;;;;;;;;;;;;1005325;29;1283;-17
2021/12/07 02:53:46;;;;;;;;;;;;;;;;;;1005572;29;1063;-17
2021/12/07 02:54:18;;;;;;;;;;;;;;;;;;1001613;29;1263;-17
2021/12/07 02:54:49;;;;;;;;;;;;;;;;;;1002064;29;1267;-17
2021/12/07 02:55:25;;;;;;;;;;;;;;;;;;1003031;29;1516;-17
2021/12/07 02:55:57;;;;;;;;;;;;;;;;;;1006466;29;1188;-17
2021/12/07 02:56:30;;;;;;;;;;;;;;;;;;1005367;29;1179;-17
2021/12/07 02:57:02;;;;;;;;;;;;;;;;;;1002393;29;1113;-17
2021/12/07 02:57:34;;;;;;;;;;;;;;;;;;1001450;29;1349;-17
2021/12/07 02:58:05;;;;;;;;;;;;;;;;;;1002058;29;1587;-17
2021/12/07 02:58:36;;;;;;;;;;;;;;;;;;1005947;29;958;-17
2021/12/07 02:59:09;;;;;;;;;;;;;;;;;;1009672;29;891;-17
2021/12/07 02:59:41;;;;;;;;;;;;;;;;;;1012958;29;1048;-17
2021/12/07 03:00:18;;;;;;;;;;;;;;;;;;1009112;29;1498;-17
2021/12/07 03:00:59;;;;;;;;;;;;;;;;;;1005251;29;1420;-16
2021/12/07 03:01:33;;;;;;;;;;;;;;;;;;1005360;29;1293;-17
2021/12/07 03:02:07;;;;;;;;;;;;;;;;;;1008269;29;898;-17
2021/12/07 03:02:45;;;;;;;;;;;;;;;;;;1001116;29;971;-17
2021/12/07 03:03:16;;;;;;;;;;;;;;;;;;1001348;29;1298;-17
2021/12/07 03:04:05;;;;;;;;;;;;;;;;;;1001021;29;1223;-17
2021/12/07 03:04:48;;;;;;;;;;;;;;;;;;1009200;29;1914;-17
2021/12/07 03:07:16;;;;;;;;;;;;;;;;;;1005332;29;1149;-17
2021/12/07 03:09:46;;;;;;;;;;;;;;;;;;1009183;29;1434;-17
2021/12/07 03:26:08;;;;;;;;;;;;;;;;;;1010144;29;1210;-17
2021/12/07 03:26:42;;;;;;;;;;;;;;;;;;1012785;29;1167;-17
2021/12/07 03:27:12;;;;;;;;;;;;;;;;;;1013469;29;1083;-17
2021/12/07 03:27:44;;;;;;;;;;;;;;;;;;1012832;29;1316;-17
2021/12/07 03:28:16;;;;;;;;;;;;;;;;;;1012811;29;1112;-17
2021/12/07 03:28:49;;;;;;;;;;;;;;;;;;1013115;29;1234;-17
2021/12/07 03:29:23;;;;;;;;;;;;;;;;;;1009267;29;1183;-17
2021/12/07 03:29:54;;;;;;;;;;;;;;;;;;1009225;29;1015;-17
2021/12/07 03:30:25;;;;;;;;;;;;;;;;;;1008252;29;1447;-17
2021/12/07 03:30:56;;;;;;;;;;;;;;;;;;1001850;29;1148;-17
2021/12/07 03:31:27;;;;;;;;;;;;;;;;;;1001438;29;1303;-17
2021/12/07 03:31:57;;;;;;;;;;;;;;;;;;1001676;29;1223;-17
2021/12/07 03:32:28;;;;;;;;;;;;;;;;;;1005427;29;799;-17
2021/12/07 03:33:00;;;;;;;;;;;;;;;;;;1005581;29;1187;-17
2021/12/07 03:33:30;;;;;;;;;;;;;;;;;;1012927;29;1010;-17
2021/12/07 03:34:01;;;;;;;;;;;;;;;;;;1009088;29;840;-17
2021/12/07 03:34:34;;;;;;;;;;;;;;;;;;1009382;29;1281;-17
2021/12/07 03:35:05;;;;;;;;;;;;;;;;;;1001065;29;960;-17
2021/12/07 03:35:36;;;;;;;;;;;;;;;;;;998005;29;1271;-17
2021/12/07 03:36:08;;;;;;;;;;;;;;;;;;997333;29;2350;-17
2021/12/07 03:36:38;;;;;;;;;;;;;;;;;;997797;29;980;-17
2021/12/07 03:37:09;;;;;;;;;;;;;;;;;;1004656;29;997;-17
2021/12/07 03:37:40;;;;;;;;;;;;;;;;;;1005756;29;965;-18
2021/12/07 03:38:11;;;;;;;;;;;;;;;;;;1009098;29;1376;-17
2021/12/07 03:38:42;;;;;;;;;;;;;;;;;;1005464;29;1290;-17
2021/12/07 03:39:12;;;;;;;;;;;;;;;;;;1005221;29;1199;-17
2021/12/07 03:39:43;;;;;;;;;;;;;;;;;;1005009;29;1362;-17
2021/12/07 03:40:14;;;;;;;;;;;;;;;;;;1005473;29;1183;-17
2021/12/07 03:40:44;;;;;;;;;;;;;;;;;;1009386;29;1014;-17
2021/12/07 03:41:15;;;;;;;;;;;;;;;;;;1012779;29;1298;-16
2021/12/07 03:41:45;;;;;;;;;;;;;;;;;;1013090;29;1062;-17
2021/12/07 03:42:16;;;;;;;;;;;;;;;;;;1013008;29;1046;-17
2021/12/07 03:42:46;;;;;;;;;;;;;;;;;;1012910;29;1135;-17
2021/12/07 03:43:17;;;;;;;;;;;;;;;;;;1012956;29;1708;-17
2021/12/07 03:43:49;;;;;;;;;;;;;;;;;;1012833;29;1302;-17
2021/12/07 03:44:20;;;;;;;;;;;;;;;;;;1009273;29;1584;-18
2021/12/07 03:44:56;;;;;;;;;;;;;;;;;;1005345;29;1907;-17
2021/12/07 03:45:27;;;;;;;;;;;;;;;;;;1005304;29;1024;-17
2021/12/07 03:45:57;;;;;;;;;;;;;;;;;;1006215;29;1406;-17
2021/12/07 03:46:28;;;;;;;;;;;;;;;;;;1012996;29;1194;-17
2021/12/07 03:47:01;;;;;;;;;;;;;;;;;;1013075;29;1214;-17
2021/12/07 03:47:32;;;;;;;;;;;;;;;;;;1013442;29;939;-17
2021/12/07 03:48:04;;;;;;;;;;;;;;;;;;1012201;29;1668;-17
2021/12/07 03:48:34;;;;;;;;;;;;;;;;;;1009504;29;948;-17
2021/12/07 03:49:05;;;;;;;;;;;;;;;;;;1013159;29;1000;-17
2021/12/07 03:49:35;;;;;;;;;;;;;;;;;;1010658;29;1329;-17
2021/12/07 03:50:09;;;;;;;;;;;;;;;;;;1009153;29;1206;-17
2021/12/07 03:50:39;;;;;;;;;;;;;;;;;;1012759;29;1296;-17
2021/12/07 03:51:11;;;;;;;;;;;;;;;;;;1013031;29;1305;-17
2021/12/07 03:51:43;;;;;;;;;;;;;;;;;;1009107;29;1206;-17
2021/12/07 03:52:14;;;;;;;;;;;;;;;;;;1009096;29;1328;-17
2021/12/07 03:52:45;;;;;;;;;;;;;;;;;;1005197;29;1298;-17
2021/12/07 03:53:16;;;;;;;;;;;;;;;;;;1001593;29;1191;-17
2021/12/07 03:53:47;;;;;;;;;;;;;;;;;;1005130;29;1250;-17
2021/12/07 03:54:19;;;;;;;;;;;;;;;;;;1005333;29;1286;-17
2021/12/07 03:54:50;;;;;;;;;;;;;;;;;;1005729;29;1203;-17
2021/12/07 03:55:21;;;;;;;;;;;;;;;;;;1009285;29;855;-17
2021/12/07 03:55:51;;;;;;;;;;;;;;;;;;1009207;29;1242;-17
2021/12/07 03:56:22;;;;;;;;;;;;;;;;;;1009398;29;1318;-17
2021/12/07 03:56:52;;;;;;;;;;;;;;;;;;1013091;29;800;-17
2021/12/07 03:57:23;;;;;;;;;;;;;;;;;;1013146;29;1404;-17
2021/12/07 03:57:53;;;;;;;;;;;;;;;;;;1013128;29;1085;-17
2021/12/07 03:58:24;;;;;;;;;;;;;;;;;;1008815;29;1391;-17
2021/12/07 03:58:55;;;;;;;;;;;;;;;;;;1009331;29;1513;-17
2021/12/07 03:59:25;;;;;;;;;;;;;;;;;;1009065;29;788;-17
2021/12/07 03:59:56;;;;;;;;;;;;;;;;;;1008928;29;1198;-17
2021/12/07 04:00:30;;;;;;;;;;;;;;;;;;1009445;29;1254;-17
2021/12/07 04:01:03;;;;;;;;;;;;;;;;;;1008937;29;1448;-17
2021/12/07 04:01:34;;;;;;;;;;;;;;;;;;1009127;29;1302;-17
2021/12/07 04:02:04;;;;;;;;;;;;;;;;;;1009215;29;977;-17
2021/12/07 04:02:40;;;;;;;;;;;;;;;;;;1009107;29;1149;-17
2021/12/07 04:03:13;;;;;;;;;;;;;;;;;;1009817;29;1262;-17
2021/12/07 04:03:45;;;;;;;;;;;;;;;;;;1012937;29;908;-17
2021/12/07 04:04:18;;;;;;;;;;;;;;;;;;1013126;29;863;-17
2021/12/07 04:04:57;;;;;;;;;;;;;;;;;;1012849;29;1927;-17
2021/12/07 04:05:27;;;;;;;;;;;;;;;;;;1012992;29;1190;-23
2021/12/07 04:06:00;;;;;;;;;;;;;;;;;;1013045;29;1246;-17
2021/12/07 04:06:31;;;;;;;;;;;;;;;;;;1012930;29;1187;-17
2021/12/07 04:07:01;;;;;;;;;;;;;;;;;;1009203;29;1173;-17
2021/12/07 04:07:32;;;;;;;;;;;;;;;;;;1009210;29;993;-17
2021/12/07 04:08:03;;;;;;;;;;;;;;;;;;1005253;29;1095;-17
2021/12/07 04:08:35;;;;;;;;;;;;;;;;;;1009233;29;1147;-17
2021/12/07 04:09:06;;;;;;;;;;;;;;;;;;1012761;29;1302;-17
2021/12/07 04:09:37;;;;;;;;;;;;;;;;;;1009103;29;1196;-17
2021/12/07 04:10:09;;;;;;;;;;;;;;;;;;1005154;29;1208;-17
2021/12/07 04:10:40;;;;;;;;;;;;;;;;;;1001414;29;1251;-17
2021/12/07 04:11:10;;;;;;;;;;;;;;;;;;1001818;29;1164;-17
2021/12/07 04:11:41;;;;;;;;;;;;;;;;;;1005412;29;843;-17
2021/12/07 04:12:11;;;;;;;;;;;;;;;;;;1009032;29;981;-17
2021/12/07 04:12:42;;;;;;;;;;;;;;;;;;1013012;29;1277;-17
2021/12/07 04:13:13;;;;;;;;;;;;;;;;;;1012866;29;1261;-17
2021/12/07 04:13:45;;;;;;;;;;;;;;;;;;1013029;29;985;-17
2021/12/07 04:14:15;;;;;;;;;;;;;;;;;;1012950;29;1194;-17
2021/12/07 04:14:46;;;;;;;;;;;;;;;;;;1012556;29;1134;-17
2021/12/07 04:15:17;;;;;;;;;;;;;;;;;;1013066;29;992;-17
2021/12/07 04:15:47;;;;;;;;;;;;;;;;;;1012908;29;1087;-17
2021/12/07 04:16:18;;;;;;;;;;;;;;;;;;1012907;29;1004;-16
2021/12/07 04:16:52;;;;;;;;;;;;;;;;;;1013215;29;1308;-17
2021/12/07 04:17:22;;;;;;;;;;;;;;;;;;1008946;29;1411;-17
2021/12/07 04:17:53;;;;;;;;;;;;;;;;;;1005179;29;1257;-17
2021/12/07 04:18:23;;;;;;;;;;;;;;;;;;1001227;29;1275;-17
2021/12/07 04:18:54;;;;;;;;;;;;;;;;;;1001243;29;1254;-17
2021/12/07 04:19:24;;;;;;;;;;;;;;;;;;1005438;29;916;-17
2021/12/07 04:19:55;;;;;;;;;;;;;;;;;;1004951;29;1260;-17
2021/12/07 04:20:25;;;;;;;;;;;;;;;;;;1005221;29;1262;-17
2021/12/07 04:20:56;;;;;;;;;;;;;;;;;;1005259;29;1331;-17
2021/12/07 04:21:26;;;;;;;;;;;;;;;;;;1005243;29;1199;-17
2021/12/07 04:21:57;;;;;;;;;;;;;;;;;;1009185;29;925;-17
2021/12/07 04:22:27;;;;;;;;;;;;;;;;;;1008976;29;990;-17
2021/12/07 04:22:57;;;;;;;;;;;;;;;;;;1009090;29;906;-16
2021/12/07 04:23:29;;;;;;;;;;;;;;;;;;1013419;29;1005;-17
2021/12/07 04:23:59;;;;;;;;;;;;;;;;;;1013338;29;884;-17
2021/12/07 04:24:30;;;;;;;;;;;;;;;;;;1013152;29;1931;-17
2021/12/07 04:25:01;;;;;;;;;;;;;;;;;;1013028;29;1008;-17
2021/12/07 04:25:31;;;;;;;;;;;;;;;;;;1013468;29;760;-17
2021/12/07 04:26:04;;;;;;;;;;;;;;;;;;1013284;29;961;-17
2021/12/07 04:26:34;;;;;;;;;;;;;;;;;;1013364;29;996;-17
2021/12/07 04:27:05;;;;;;;;;;;;;;;;;;1013376;29;816;-17
2021/12/07 04:27:38;;;;;;;;;;;;;;;;;;1013222;29;1102;-17
2021/12/07 04:28:09;;;;;;;;;;;;;;;;;;1013284;29;1013;-17
2021/12/07 04:28:40;;;;;;;;;;;;;;;;;;1012964;29;1019;-17
2021/12/07 04:29:10;;;;;;;;;;;;;;;;;;1013387;29;931;-17
2021/12/07 04:29:41;;;;;;;;;;;;;;;;;;1013202;29;1021;-17
2021/12/07 04:30:13;;;;;;;;;;;;;;;;;;1013006;29;1223;-17
2021/12/07 04:30:44;;;;;;;;;;;;;;;;;;1013318;29;936;-17
2021/12/07 04:31:15;;;;;;;;;;;;;;;;;;1013404;29;813;-16
2021/12/07 04:31:45;;;;;;;;;;;;;;;;;;1013004;29;1177;-17
2021/12/07 04:32:15;;;;;;;;;;;;;;;;;;1013393;29;1016;-16
2021/12/07 04:32:46;;;;;;;;;;;;;;;;;;1013133;29;836;-17
2021/12/07 04:33:16;;;;;;;;;;;;;;;;;;1013329;29;940;-17
2021/12/07 04:33:47;;;;;;;;;;;;;;;;;;1013181;29;911;-17
2021/12/07 04:34:17;;;;;;;;;;;;;;;;;;1013126;29;982;-17
2021/12/07 04:34:47;;;;;;;;;;;;;;;;;;1012827;29;891;-17
2021/12/07 04:35:18;;;;;;;;;;;;;;;;;;1013247;29;800;-17
2021/12/07 04:35:49;;;;;;;;;;;;;;;;;;1008967;29;870;-17
2021/12/07 04:36:20;;;;;;;;;;;;;;;;;;1009021;29;1006;-17
2021/12/07 04:36:50;;;;;;;;;;;;;;;;;;1008726;29;978;-17
2021/12/07 04:37:22;;;;;;;;;;;;;;;;;;1004761;29;1049;-17
2021/12/07 04:37:52;;;;;;;;;;;;;;;;;;997098;29;1135;-17
2021/12/07 04:38:23;;;;;;;;;;;;;;;;;;997135;29;1034;-17
2021/12/07 04:38:53;;;;;;;;;;;;;;;;;;997363;29;1101;-17
2021/12/07 04:39:23;;;;;;;;;;;;;;;;;;1004683;29;880;-17
2021/12/07 04:39:54;;;;;;;;;;;;;;;;;;1013381;29;871;-17
2021/12/07 04:40:27;;;;;;;;;;;;;;;;;;1013160;29;1000;-17
2021/12/07 04:40:57;;;;;;;;;;;;;;;;;;1013275;29;895;-17
2021/12/07 04:41:32;;;;;;;;;;;;;;;;;;1008666;29;923;-17
2021/12/07 04:42:03;;;;;;;;;;;;;;;;;;1008570;29;1622;-17
2021/12/07 04:42:33;;;;;;;;;;;;;;;;;;1008739;29;916;-17
2021/12/07 04:43:04;;;;;;;;;;;;;;;;;;1009476;29;964;-17
2021/12/07 04:43:35;;;;;;;;;;;;;;;;;;1013171;29;889;-17